Nikiski, AK (99635)

2:23 PM AKDT on July 28, 2016 (GMT -0800)
McGahan | | Change Station

Elev 159 ft 60.73 °N, 151.30 °W | Updated 1 second ago

Clear
Clear
65.5 °F
Feels Like 65.5 °F
N
8.0
Wind Variable Wind from NW
Gusts 8.0 mph

Today
High -- | Low -- °F
--% Chance of Precip.
Yesterday
High -- | Low -- °F
Precip. -- in
Pressure 29.90 in
Visibility 10.0 miles
Clouds Clear
Dew Point 57 °F
Humidity 75%
Rainfall 0.00 in
Snow Depth Not available.
5:33 AM 10:48 PM
Waning Crescent, 28% visible
METAR PAEN 282153Z 25007KT 10SM CLR 19/13 A2990 RMK AO2 SLP125 T01940128
Pressure 29.90 in
Visibility 10.0 miles
Clouds Clear
Dew Point 57 °F
Humidity 75%
Rainfall 0.00 in
Snow Depth Not available.
5:33 AM 10:48 PM
Waning Crescent, 28% visible
METAR PAEN 282153Z 25007KT 10SM CLR 19/13 A2990 RMK AO2 SLP125 T01940128

10-Day Weather Forecast

Almanac

Astronomy

Jul. 28, 2016 Rise Set
Actual Time
Civil Twilight
Nautical Twilight
Astronomical Twilight
Moon
Length of Visible Light
Length of Day
Tomorrow will be .
, % of the Moon is Illuminated

Today's Extremes

State Highs State Lows

Community

WunderPhotos

Upload Photos

1,928,220 photos uploaded!

WunderBlog® & News

Nearby

Air Quality

  Air Quality AQ Index Pollutant
Not available.

Snow Depth

Station Depth Elevation

Earthquake Activity

City Distance Mag. Time & Date
Minimum magnitude displayed is 2.5.

Coastal Water Temperatures

Place Temperature

Stations

Nearby Weather Stations

Station Location Temp. Windchill Dew Point Humidity Wind Precip. Elev Updated Type
                   

Watches & Warnings

There are currently no watches in effect.